createdAt,value
2018-07-22T00:00:36.504Z,45.30
2018-07-22T00:03:05.173Z,45.46
2018-07-22T00:05:34.144Z,45.68
2018-07-22T00:08:02.846Z,45.83
2018-07-22T00:10:31.758Z,45.80
2018-07-22T00:13:01.016Z,45.30
2018-07-22T00:15:29.992Z,45.86
2018-07-22T00:17:58.755Z,45.83
2018-07-22T00:20:28.201Z,43.68
2018-07-22T00:22:56.881Z,44.13
2018-07-22T00:25:25.525Z,45.35
2018-07-22T00:27:54.488Z,43.96
2018-07-22T00:30:23.163Z,44.49
2018-07-22T00:32:51.920Z,44.75
2018-07-22T00:35:20.726Z,44.77
2018-07-22T00:37:49.400Z,44.66
2018-07-22T00:40:19.111Z,44.88
2018-07-22T00:42:47.838Z,44.67
2018-07-22T00:45:16.625Z,44.35
2018-07-22T00:47:45.315Z,44.86
2018-07-22T00:50:13.995Z,45.06
2018-07-22T00:52:42.673Z,46.45
2018-07-22T00:55:11.674Z,45.18
2018-07-22T00:57:47.093Z,45.61
2018-07-22T01:00:15.954Z,45.99
2018-07-22T01:02:44.646Z,45.51
2018-07-22T01:05:13.684Z,45.58
2018-07-22T01:07:42.325Z,45.67
2018-07-22T01:10:11.068Z,45.42
2018-07-22T01:12:39.757Z,45.72
2018-07-22T01:15:08.540Z,44.78
2018-07-22T01:17:37.553Z,45.96
2018-07-22T01:20:07.114Z,46.40
2018-07-22T01:22:36.105Z,46.38
2018-07-22T01:25:04.827Z,46.64
2018-07-22T01:27:33.587Z,45.78
2018-07-22T01:30:02.399Z,46.79
2018-07-22T01:32:31.162Z,46.37
2018-07-22T01:35:00.668Z,46.64
2018-07-22T01:37:29.629Z,46.39
2018-07-22T01:39:58.322Z,46.64
2018-07-22T01:42:27.753Z,46.85
2018-07-22T01:44:56.738Z,47.27
2018-07-22T01:47:25.417Z,48.22
2018-07-22T01:49:54.139Z,48.13
2018-07-22T01:52:22.873Z,48.13
2018-07-22T01:54:51.556Z,49.03
2018-07-22T01:57:20.164Z,49.59
2018-07-22T01:59:48.909Z,49.65
2018-07-22T02:02:17.568Z,49.22
2018-07-22T02:04:46.202Z,49.35
2018-07-22T02:07:15.318Z,49.00
2018-07-22T02:09:44.177Z,49.59
2018-07-22T02:12:12.824Z,49.97
2018-07-22T02:14:41.957Z,50.39
2018-07-22T02:17:11.156Z,50.33
2018-07-22T02:19:39.839Z,50.21
2018-07-22T02:22:08.546Z,50.90
2018-07-22T02:24:37.216Z,51.31
2018-07-22T02:27:07.514Z,51.49
2018-07-22T02:29:36.167Z,51.86
2018-07-22T02:32:04.878Z,51.88
2018-07-22T02:34:33.804Z,51.64
2018-07-22T02:37:02.810Z,52.21
2018-07-22T02:39:31.798Z,51.14
2018-07-22T02:42:00.530Z,50.98
2018-07-22T02:44:29.226Z,51.87
2018-07-22T02:46:58.015Z,52.12
2018-07-22T02:49:26.716Z,52.13
2018-07-22T02:51:55.357Z,52.43
2018-07-22T02:54:24.287Z,52.43
2018-07-22T02:56:53.310Z,53.24
2018-07-22T02:59:22.306Z,53.07
2018-07-22T03:01:50.925Z,53.79
2018-07-22T03:04:19.635Z,53.51
2018-07-22T03:06:48.409Z,53.10
2018-07-22T03:09:17.119Z,53.26
2018-07-22T03:11:46.164Z,53.10
2018-07-22T03:14:14.792Z,54.12
2018-07-22T03:16:43.512Z,54.01
2018-07-22T03:19:12.264Z,53.82
2018-07-22T03:21:40.983Z,54.10
2018-07-22T03:24:09.848Z,53.98
2018-07-22T03:26:38.592Z,54.10
2018-07-22T03:29:08.068Z,54.62
2018-07-22T03:31:36.726Z,54.73
2018-07-22T03:34:05.515Z,54.29
2018-07-22T03:36:34.272Z,53.91
2018-07-22T03:39:03.026Z,54.36
2018-07-22T03:41:31.948Z,54.53
2018-07-22T03:44:01.350Z,54.85
2018-07-22T03:46:30.037Z,55.43
2018-07-22T03:48:58.992Z,54.15
2018-07-22T03:51:28.343Z,54.66
2018-07-22T03:53:57.005Z,54.84
2018-07-22T03:56:25.665Z,54.32
2018-07-22T03:58:54.355Z,55.26
2018-07-22T04:01:23.017Z,56.26
2018-07-22T04:03:51.722Z,54.80
2018-07-22T04:06:20.438Z,54.63
2018-07-22T04:08:49.146Z,54.03
2018-07-22T04:11:18.453Z,54.86
2018-07-22T04:13:47.161Z,54.34
2018-07-22T04:16:15.814Z,54.69
2018-07-22T04:18:52.387Z,53.43
2018-07-22T04:21:22.375Z,54.22
2018-07-22T04:23:51.462Z,53.45
2018-07-22T04:26:21.138Z,54.64
2018-07-22T04:28:51.357Z,54.23
2018-07-22T04:31:20.328Z,53.98
2018-07-22T04:33:49.470Z,54.09
2018-07-22T04:36:18.414Z,55.26
2018-07-22T04:38:47.084Z,54.96
2018-07-22T04:41:15.813Z,55.12
2018-07-22T04:43:44.784Z,54.98
2018-07-22T04:46:13.743Z,55.07
2018-07-22T04:48:42.776Z,54.53
2018-07-22T04:51:11.472Z,54.96
2018-07-22T04:53:40.223Z,54.82
2018-07-22T04:56:09.535Z,55.39
2018-07-22T04:58:38.462Z,54.98
2018-07-22T05:01:07.168Z,53.86
2018-07-22T05:03:36.133Z,52.90
2018-07-22T05:06:04.776Z,52.88
2018-07-22T05:08:33.711Z,52.29
2018-07-22T05:11:02.803Z,53.19
2018-07-22T05:13:31.981Z,53.29
2018-07-22T05:16:00.936Z,53.06
2018-07-22T05:18:29.861Z,52.25
2018-07-22T05:20:58.531Z,53.20
2018-07-22T05:23:27.595Z,53.77
2018-07-22T05:25:56.364Z,53.19
2018-07-22T05:28:25.379Z,52.68
2018-07-22T05:30:54.658Z,52.30
2018-07-22T05:33:23.545Z,52.54
2018-07-22T05:35:52.612Z,52.95
2018-07-22T05:38:21.631Z,52.75
2018-07-22T05:40:50.694Z,52.70
2018-07-22T05:43:19.735Z,52.49
2018-07-22T05:45:48.488Z,52.97
2018-07-22T05:48:17.170Z,52.67
2018-07-22T05:50:45.812Z,51.41
2018-07-22T05:53:14.437Z,50.44
2018-07-22T05:55:43.059Z,51.07
2018-07-22T05:58:12.030Z,50.67
2018-07-22T06:00:41.429Z,49.80
2018-07-22T06:03:10.294Z,49.39
2018-07-22T06:05:39.181Z,51.03
2018-07-22T06:08:07.850Z,48.65
2018-07-22T06:10:36.844Z,48.70
2018-07-22T06:13:05.610Z,48.41
2018-07-22T06:15:34.498Z,48.50
2018-07-22T06:18:03.497Z,48.13
2018-07-22T06:20:32.509Z,49.36
2018-07-22T06:23:01.200Z,49.75
2018-07-22T06:25:30.170Z,50.77
2018-07-22T06:27:59.450Z,49.67
2018-07-22T06:30:28.459Z,50.14
2018-07-22T06:32:57.459Z,50.27
2018-07-22T06:35:26.112Z,48.89
2018-07-22T06:37:54.789Z,48.41
2018-07-22T06:40:23.427Z,48.70
2018-07-22T06:42:52.422Z,48.63
2018-07-22T06:45:22.023Z,47.92
2018-07-22T06:47:50.743Z,47.72
2018-07-22T06:50:19.619Z,46.15
2018-07-22T06:52:48.266Z,46.05
2018-07-22T06:55:16.918Z,47.45
2018-07-22T06:57:47.558Z,48.27
2018-07-22T07:00:16.261Z,48.87
2018-07-22T07:02:44.990Z,48.97
2018-07-22T07:05:13.749Z,48.03
2018-07-22T07:07:42.394Z,46.87
2018-07-22T07:10:11.663Z,47.69
2018-07-22T07:12:40.960Z,43.00
2018-07-22T07:15:09.787Z,41.71
2018-07-22T07:17:38.841Z,43.23
2018-07-22T07:20:07.674Z,43.09
2018-07-22T07:22:36.435Z,45.26
2018-07-22T07:25:06.310Z,45.90
2018-07-22T07:27:35.302Z,44.68
2018-07-22T07:30:05.707Z,43.37
2018-07-22T07:32:34.746Z,42.91
2018-07-22T07:35:03.402Z,43.92
2018-07-22T07:37:32.401Z,43.74
2018-07-22T07:40:01.440Z,43.44
2018-07-22T07:42:30.136Z,39.71
2018-07-22T07:44:59.478Z,39.72
2018-07-22T07:47:29.099Z,38.76
2018-07-22T07:49:57.790Z,41.23
2018-07-22T07:52:28.133Z,41.23
2018-07-22T07:54:57.241Z,37.93
2018-07-22T07:57:27.216Z,38.44
2018-07-22T07:59:56.011Z,40.03
2018-07-22T08:02:26.150Z,38.92
2018-07-22T08:04:55.479Z,40.50
2018-07-22T08:07:24.274Z,39.32
2018-07-22T08:09:53.359Z,38.71
2018-07-22T08:12:22.566Z,37.49
2018-07-22T08:14:51.858Z,38.54
2018-07-22T08:17:20.945Z,39.96
2018-07-22T08:19:50.056Z,38.11
2018-07-22T08:22:18.967Z,36.17
2018-07-22T08:24:47.636Z,37.30
2018-07-22T08:27:16.447Z,37.08
2018-07-22T08:29:45.509Z,38.26
2018-07-22T08:32:14.187Z,37.80
2018-07-22T08:34:42.925Z,34.48
2018-07-22T08:37:12.921Z,36.70
2018-07-22T08:39:43.831Z,36.52
2018-07-22T08:42:13.978Z,36.15
2018-07-22T08:44:46.557Z,34.29
2018-07-22T08:47:16.583Z,34.28
2018-07-22T08:49:45.744Z,32.70
2018-07-22T08:52:14.493Z,32.24
2018-07-22T08:54:44.505Z,32.11
2018-07-22T08:57:15.762Z,29.59
2018-07-22T08:59:45.045Z,32.41
2018-07-22T09:02:15.599Z,32.31
2018-07-22T09:04:44.690Z,33.42
2018-07-22T09:07:13.472Z,30.59
2018-07-22T09:09:51.550Z,31.92
2018-07-22T09:12:20.631Z,32.20
2018-07-22T09:14:50.572Z,32.06
2018-07-22T09:17:19.509Z,30.83
2018-07-22T09:19:48.583Z,30.05
2018-07-22T09:22:20.065Z,31.94
2018-07-22T09:24:49.042Z,33.83
2018-07-22T09:27:18.828Z,32.52
2018-07-22T09:29:48.742Z,31.77
2018-07-22T09:32:22.367Z,31.10
2018-07-22T09:34:52.118Z,30.89
2018-07-22T09:37:20.874Z,30.25
2018-07-22T09:39:51.743Z,31.25
2018-07-22T09:42:23.346Z,31.10
2018-07-22T09:44:55.250Z,32.51
2018-07-22T09:47:31.314Z,32.93
2018-07-22T09:50:01.236Z,31.82
2018-07-22T09:52:31.723Z,33.94
2018-07-22T09:55:07.344Z,36.02
2018-07-22T09:57:42.597Z,35.64
2018-07-22T10:00:14.438Z,35.25
2018-07-22T10:02:44.824Z,33.30
2018-07-22T10:05:16.057Z,33.96
2018-07-22T10:07:46.039Z,32.27
2018-07-22T10:10:14.994Z,32.99
2018-07-22T10:12:44.767Z,34.43
2018-07-22T10:15:14.059Z,34.19
2018-07-22T10:17:43.726Z,32.08
2018-07-22T10:20:13.668Z,31.32
2018-07-22T10:22:42.447Z,32.79
2018-07-22T10:25:11.269Z,32.27
2018-07-22T10:27:41.101Z,33.49
2018-07-22T10:30:10.059Z,33.12
2018-07-22T10:32:38.753Z,34.07
2018-07-22T10:35:07.737Z,34.21
2018-07-22T10:37:36.857Z,32.19
2018-07-22T10:40:05.604Z,33.14
2018-07-22T10:42:34.545Z,33.25
2018-07-22T10:45:03.159Z,33.00
2018-07-22T10:47:31.806Z,32.92
2018-07-22T10:50:00.490Z,33.85
2018-07-22T10:52:29.467Z,33.91
2018-07-22T10:54:58.088Z,34.34
2018-07-22T10:57:27.048Z,34.99
2018-07-22T10:59:56.194Z,34.64
2018-07-22T11:02:25.186Z,35.93
2018-07-22T11:04:54.419Z,35.08
2018-07-22T11:07:23.836Z,34.04
2018-07-22T11:09:53.603Z,34.39
2018-07-22T11:12:23.588Z,36.39
2018-07-22T11:14:52.709Z,35.33
2018-07-22T11:17:21.308Z,34.04
2018-07-22T11:19:49.950Z,34.03
2018-07-22T11:22:18.608Z,35.40
2018-07-22T11:24:47.521Z,34.86
2018-07-22T11:27:17.473Z,34.28
2018-07-22T11:29:46.365Z,35.64
2018-07-22T11:32:15.014Z,36.02
2018-07-22T11:34:43.884Z,34.53
2018-07-22T11:37:12.529Z,36.69
2018-07-22T11:39:41.173Z,35.27
2018-07-22T11:42:10.509Z,35.73
2018-07-22T11:44:39.176Z,34.86
2018-07-22T11:47:08.164Z,35.53
2018-07-22T11:49:37.239Z,36.98
2018-07-22T11:52:06.013Z,35.94
2018-07-22T11:54:34.653Z,35.25
2018-07-22T11:57:03.801Z,34.77
2018-07-22T11:59:34.077Z,35.63
2018-07-22T12:02:02.812Z,36.13
2018-07-22T12:04:32.993Z,36.59
2018-07-22T12:07:02.273Z,36.62
2018-07-22T12:09:31.298Z,36.36
2018-07-22T12:12:00.629Z,35.84
2018-07-22T12:14:29.381Z,35.37
2018-07-22T12:17:01.329Z,35.46
2018-07-22T12:19:30.467Z,36.48
2018-07-22T12:21:59.529Z,35.31
2018-07-22T12:24:28.700Z,35.45
2018-07-22T12:26:57.394Z,37.45
2018-07-22T12:29:26.399Z,35.70
2018-07-22T12:31:55.195Z,35.91
2018-07-22T12:34:24.058Z,35.20
2018-07-22T12:36:52.687Z,34.22
2018-07-22T12:39:21.314Z,34.44
2018-07-22T12:41:49.937Z,35.92
2018-07-22T12:44:18.964Z,36.10
2018-07-22T12:46:47.620Z,34.15
2018-07-22T12:49:16.329Z,33.39
2018-07-22T12:51:45.118Z,33.36
2018-07-22T12:54:13.786Z,33.81
2018-07-22T12:56:42.707Z,35.12
2018-07-22T12:59:11.392Z,35.85
2018-07-22T13:01:40.112Z,35.33
2018-07-22T13:04:10.157Z,33.92
2018-07-22T13:06:38.801Z,32.96
2018-07-22T13:09:09.641Z,31.96
2018-07-22T13:11:38.808Z,31.98
2018-07-22T13:14:07.907Z,32.87
2018-07-22T13:16:36.644Z,33.73
2018-07-22T13:19:05.318Z,34.06
2018-07-22T13:21:34.255Z,35.70
2018-07-22T13:24:03.870Z,36.68
2018-07-22T13:26:32.513Z,35.91
2018-07-22T13:29:01.250Z,33.92
2018-07-22T13:31:29.936Z,30.30
2018-07-22T13:33:58.622Z,29.78
2018-07-22T13:36:27.697Z,28.38
2018-07-22T13:38:56.500Z,28.20
2018-07-22T13:41:25.502Z,29.29
2018-07-22T13:43:54.297Z,27.68
2018-07-22T13:46:23.109Z,28.79
2018-07-22T13:48:51.771Z,27.05
2018-07-22T13:51:20.529Z,27.29
2018-07-22T13:53:49.474Z,24.51
2018-07-22T13:56:18.136Z,23.43
2018-07-22T13:58:48.071Z,23.51
2018-07-22T14:01:17.042Z,23.25
2018-07-22T14:03:45.730Z,23.41
2018-07-22T14:06:14.378Z,23.33
2018-07-22T14:08:43.393Z,25.04
2018-07-22T14:11:12.034Z,25.53
2018-07-22T14:13:41.279Z,25.08
2018-07-22T14:16:09.916Z,24.13
2018-07-22T14:18:38.571Z,24.25
2018-07-22T14:21:07.229Z,22.07
2018-07-22T14:23:36.148Z,21.90
2018-07-22T14:26:05.718Z,22.49
2018-07-22T14:28:34.543Z,22.54
2018-07-22T14:31:03.586Z,22.77
2018-07-22T14:33:32.214Z,23.40
2018-07-22T14:36:00.864Z,24.56
2018-07-22T14:38:29.592Z,26.84
2018-07-22T14:40:58.656Z,28.74
2018-07-22T14:43:27.490Z,30.03
2018-07-22T14:45:56.197Z,30.19
2018-07-22T14:48:25.197Z,31.64
2018-07-22T14:50:54.224Z,33.15
2018-07-22T14:53:23.162Z,33.42
2018-07-22T14:55:52.205Z,33.45
2018-07-22T14:58:20.858Z,34.32
2018-07-22T15:00:49.524Z,34.52
2018-07-22T15:03:18.185Z,35.91
2018-07-22T15:05:46.958Z,36.36
2018-07-22T15:08:15.919Z,36.93
2018-07-22T15:10:44.567Z,37.33
2018-07-22T15:13:13.499Z,37.40
2018-07-22T15:15:42.471Z,37.97
2018-07-22T15:18:11.262Z,38.96
2018-07-22T15:20:40.001Z,38.30
2018-07-22T15:23:08.599Z,37.92
2018-07-22T15:25:37.281Z,37.78
2018-07-22T15:28:06.213Z,38.09
2018-07-22T15:30:34.861Z,38.48
2018-07-22T15:33:03.739Z,37.78
2018-07-22T15:35:32.417Z,38.95
2018-07-22T15:38:01.123Z,37.79
2018-07-22T15:40:29.836Z,37.08
2018-07-22T15:42:59.568Z,38.11
2018-07-22T15:45:28.620Z,38.77
2018-07-22T15:47:57.337Z,38.76
2018-07-22T15:50:26.065Z,37.81
2018-07-22T15:52:54.716Z,38.45
2018-07-22T15:55:25.425Z,38.53
2018-07-22T15:57:54.303Z,39.23
2018-07-22T16:00:23.095Z,38.79
2018-07-22T16:02:51.978Z,38.20
2018-07-22T16:05:20.831Z,38.90
2018-07-22T16:07:49.795Z,38.60
2018-07-22T16:10:18.997Z,38.66
2018-07-22T16:12:47.755Z,38.76
2018-07-22T16:15:16.568Z,38.94
2018-07-22T16:17:46.119Z,38.58
2018-07-22T16:20:15.421Z,39.28
2018-07-22T16:22:44.447Z,38.16
2018-07-22T16:25:13.224Z,38.04
2018-07-22T16:27:42.159Z,38.27
2018-07-22T16:30:11.304Z,37.84
2018-07-22T16:32:40.032Z,37.74
2018-07-22T16:35:09.001Z,37.75
2018-07-22T16:37:37.785Z,38.41
2018-07-22T16:40:06.809Z,38.63
2018-07-22T16:42:35.600Z,39.06
2018-07-22T16:45:04.350Z,37.42
2018-07-22T16:47:33.173Z,38.87
2018-07-22T16:50:02.002Z,37.40
2018-07-22T16:52:31.194Z,38.50
2018-07-22T16:55:01.111Z,37.52
2018-07-22T16:57:29.907Z,37.95
2018-07-22T16:59:58.925Z,38.25
2018-07-22T17:02:27.905Z,38.83
2018-07-22T17:04:56.951Z,39.89
2018-07-22T17:07:26.977Z,38.50
2018-07-22T17:09:55.836Z,38.50
2018-07-22T17:12:24.838Z,38.45
2018-07-22T17:14:54.350Z,38.49
2018-07-22T17:17:23.150Z,40.00
2018-07-22T17:19:52.385Z,39.65
2018-07-22T17:22:21.199Z,39.42
2018-07-22T17:24:49.932Z,39.28
2018-07-22T17:27:18.783Z,39.55
2018-07-22T17:29:47.956Z,39.13
2018-07-22T17:32:16.595Z,38.86
2018-07-22T17:34:45.316Z,40.60
2018-07-22T17:37:14.072Z,40.37
2018-07-22T17:39:43.518Z,39.59
2018-07-22T17:42:12.331Z,40.29
2018-07-22T17:44:41.326Z,40.04
2018-07-22T17:47:10.025Z,39.81
2018-07-22T17:49:38.918Z,40.28
2018-07-22T17:52:08.589Z,40.16
2018-07-22T17:54:37.293Z,40.42
2018-07-22T17:57:06.861Z,41.66
2018-07-22T17:59:35.790Z,40.93
2018-07-22T18:02:04.612Z,41.07
2018-07-22T18:04:33.762Z,39.90
2018-07-22T18:07:02.548Z,39.77
2018-07-22T18:09:33.344Z,40.92
2018-07-22T18:12:02.523Z,40.44
2018-07-22T18:14:31.197Z,40.72
2018-07-22T18:17:00.290Z,40.53
2018-07-22T18:19:29.278Z,40.51
2018-07-22T18:21:58.942Z,41.35
2018-07-22T18:24:27.629Z,42.05
2018-07-22T18:26:56.566Z,42.65
2018-07-22T18:29:25.262Z,42.85
2018-07-22T18:31:54.899Z,43.61
2018-07-22T18:34:24.057Z,43.95
2018-07-22T18:36:52.881Z,44.90
2018-07-22T18:39:21.857Z,45.39
2018-07-22T18:41:51.417Z,45.39
2018-07-22T18:44:20.750Z,45.67
2018-07-22T18:46:49.643Z,46.01
2018-07-22T18:49:18.399Z,46.72
2018-07-22T18:51:47.438Z,46.83
2018-07-22T18:54:16.130Z,47.85
2018-07-22T18:56:45.157Z,47.53
2018-07-22T18:59:13.941Z,48.64
2018-07-22T19:01:42.662Z,49.31
2018-07-22T19:04:11.319Z,49.09
2018-07-22T19:06:40.484Z,49.61
2018-07-22T19:09:12.421Z,49.97
2018-07-22T19:11:41.357Z,50.29
2018-07-22T19:14:10.143Z,50.06
2018-07-22T19:16:39.254Z,50.61
2018-07-22T19:19:08.060Z,51.09
2018-07-22T19:21:37.157Z,51.33
2018-07-22T19:24:06.246Z,51.36
2018-07-22T19:26:34.981Z,51.61
2018-07-22T19:29:03.728Z,51.70
2018-07-22T19:31:32.450Z,52.55
2018-07-22T19:34:01.141Z,52.73
2018-07-22T19:36:30.186Z,52.42
2018-07-22T19:38:59.541Z,52.67
2018-07-22T19:41:28.375Z,52.86
2018-07-22T19:43:57.077Z,52.33
2018-07-22T19:46:25.859Z,52.78
2018-07-22T19:48:54.737Z,52.63
2018-07-22T19:51:23.542Z,53.23
2018-07-22T19:53:52.490Z,53.49
2018-07-22T19:56:21.362Z,53.04
2018-07-22T19:58:50.070Z,53.09
2018-07-22T20:01:18.856Z,53.53
2018-07-22T20:03:48.339Z,53.92
2018-07-22T20:06:17.429Z,53.89
2018-07-22T20:08:46.234Z,54.05
2018-07-22T20:11:15.030Z,54.48
2018-07-22T20:13:43.679Z,53.92
2018-07-22T20:16:12.422Z,54.84
2018-07-22T20:18:41.504Z,54.39
2018-07-22T20:21:10.806Z,54.45
2018-07-22T20:23:39.807Z,54.65
2018-07-22T20:26:08.490Z,54.85
2018-07-22T20:28:37.142Z,55.51
2018-07-22T20:31:06.184Z,55.38
2018-07-22T20:33:35.606Z,55.21
2018-07-22T20:36:04.374Z,55.56
2018-07-22T20:38:33.151Z,55.32
2018-07-22T20:41:01.837Z,55.84
2018-07-22T20:43:30.483Z,55.66
2018-07-22T20:45:59.524Z,56.15
2018-07-22T20:48:28.269Z,56.00
2018-07-22T20:50:57.352Z,55.14
2018-07-22T20:53:26.494Z,55.50
2018-07-22T20:55:55.297Z,55.74
2018-07-22T20:58:23.970Z,55.87
2018-07-22T21:00:52.616Z,56.50
2018-07-22T21:03:21.333Z,56.58
2018-07-22T21:05:50.549Z,55.95
2018-07-22T21:08:19.212Z,56.50
2018-07-22T21:10:47.983Z,56.39
2018-07-22T21:13:19.080Z,56.14
2018-07-22T21:15:48.703Z,56.78
2018-07-22T21:18:17.751Z,56.92
2018-07-22T21:20:47.286Z,56.92
2018-07-22T21:23:16.595Z,57.08
2018-07-22T21:25:45.215Z,57.25
2018-07-22T21:28:13.890Z,57.57
2018-07-22T21:30:42.586Z,58.56
2018-07-22T21:33:12.478Z,58.47
2018-07-22T21:35:41.581Z,58.39
2018-07-22T21:38:10.681Z,58.63
2018-07-22T21:40:39.394Z,58.58
2018-07-22T21:43:08.100Z,58.91
2018-07-22T21:45:36.833Z,58.31
2018-07-22T21:48:05.648Z,58.01
2018-07-22T21:50:34.711Z,58.55
2018-07-22T21:53:03.407Z,58.54
2018-07-22T21:55:32.391Z,58.66
2018-07-22T21:58:01.246Z,58.00
2018-07-22T22:00:34.988Z,58.27
2018-07-22T22:03:04.663Z,58.71
2018-07-22T22:05:33.695Z,58.92
2018-07-22T22:08:02.404Z,58.44
2018-07-22T22:10:31.424Z,58.99
2018-07-22T22:13:00.062Z,58.62
2018-07-22T22:15:29.876Z,58.53
2018-07-22T22:17:59.842Z,58.59
2018-07-22T22:20:28.991Z,59.48
2018-07-22T22:22:58.194Z,58.87
2018-07-22T22:25:26.894Z,59.27
2018-07-22T22:27:55.632Z,59.95
2018-07-22T22:30:24.338Z,59.16
2018-07-22T22:32:53.155Z,59.42
2018-07-22T22:35:21.844Z,59.69
2018-07-22T22:37:50.731Z,59.35
2018-07-22T22:40:19.726Z,59.89
2018-07-22T22:42:48.821Z,60.31
2018-07-22T22:45:17.538Z,60.34
2018-07-22T22:47:46.182Z,60.13
2018-07-22T22:50:15.094Z,60.18
2018-07-22T22:52:43.948Z,60.40
2018-07-22T22:55:12.840Z,61.05
2018-07-22T22:57:51.456Z,61.22
2018-07-22T23:00:20.131Z,61.22
2018-07-22T23:02:48.804Z,61.38
2018-07-22T23:05:17.461Z,61.57
2018-07-22T23:07:46.443Z,60.79
2018-07-22T23:10:15.159Z,61.16
2018-07-22T23:12:44.739Z,61.24
2018-07-22T23:15:13.428Z,61.91
2018-07-22T23:17:42.122Z,62.09
2018-07-22T23:20:11.072Z,62.93
2018-07-22T23:22:39.754Z,62.42
2018-07-22T23:25:08.427Z,63.11
2018-07-22T23:27:37.082Z,63.51
2018-07-22T23:30:05.922Z,63.67
2018-07-22T23:32:34.874Z,63.60
2018-07-22T23:35:03.562Z,63.74
2018-07-22T23:37:32.630Z,63.07
2018-07-22T23:40:01.309Z,62.99
2018-07-22T23:42:30.032Z,62.90
2018-07-22T23:44:58.877Z,63.06
2018-07-22T23:47:27.928Z,63.17
2018-07-22T23:49:56.925Z,63.16
2018-07-22T23:52:25.938Z,63.11
2018-07-22T23:54:54.550Z,63.29
2018-07-22T23:57:23.274Z,63.37
2018-07-22T23:59:51.958Z,64.03
